Chemical Pioneer — KAFO — position and weather

sailwx.info

Track history (hours):
 
Tides and Currents Weather Stations Pressure Air Temp Water Temp Dewpoint Dewpoint Depression Visibility Wind Speed Wind Dir Waves Ship Positions

Chemical Pioneer

Owner: US Shipping Corp, Edison, NJ. More information available from US FCC via Universal Licensing System and Coast Guard Vessel Documentation Center.

Last reported at 2017-Jan-19 22:27 UTC. Time now 2017-Jan-20 01:50 UTC.
Position N 30°13' W 093°17'.

Type: Tanker. MMSI: 366032000.

Date/timePositionNaut miles runAvg speedWind from/ knotsBaromVisibWave heightAir tempDewpointWater temp
2017-Jan-19 22:27N 30°13' W 093°17'3 3.0
2017-Jan-19 21:34N 30°11' W 093°18'6 5.6
2017-Jan-19 20:33N 30°06' W 093°19'9 8.5
2017-Jan-19 19:34N 29°57' W 093°20'1110.8
2017-Jan-19 18:34N 29°46' W 093°21'11 1.6
2017-Jan-19 11:33N 29°36' W 093°15'0 0.0
2017-Jan-18 03:21N 29°36' W 093°15'0 0.0
2017-Jan-18 02:33N 29°36' W 093°15'0 0.0
2017-Jan-17 11:21N 29°36' W 093°15'0 0.0
2017-Jan-17 10:33N 29°36' W 093°15'0 0.0
2017-Jan-17 09:33N 29°36' W 093°15'0 0.0
2017-Jan-16 19:30N 29°36' W 093°15'0 0.0
2017-Jan-16 09:27N 29°36' W 093°15'0 0.0
2017-Jan-16 02:03N 29°36' W 093°15'0 0.0
2017-Jan-15 23:33N 29°36' W 093°15'0 0.0
2017-Jan-15 22:33N 29°36' W 093°15'74814.6
2017-Jan-13 19:16N 25°13' W 080°06'1014.2
2017-Jan-13 18:34N 25°22' W 080°02'1514.5
2017-Jan-13 17:33N 25°37' W 080°01'1615.8
2017-Jan-13 16:33N 25°53' W 080°02'1413.5
2017-Jan-13 15:33N 26°06' W 080°06'1 0.6
2017-Jan-13 13:22N 26°06' W 080°07'0 0.0
2017-Jan-13 12:31N 26°06' W 080°07'0 0.0
2017-Jan-13 11:22N 26°06' W 080°07'0 0.0
2017-Jan-13 10:10N 26°06' W 080°07'0 0.0
2017-Jan-13 08:07N 26°06' W 080°07'0 0.0
2017-Jan-13 07:13N 26°06' W 080°07'0 0.0
2017-Jan-13 03:13N 26°06' W 080°07'0 0.0
2017-Jan-13 01:31N 26°06' W 080°07'0 0.0
2017-Jan-13 00:31N 26°06' W 080°07'0 0.0
2017-Jan-12 23:31N 26°06' W 080°07'0 0.0
2017-Jan-12 20:07N 26°06' W 080°07'0 0.0
2017-Jan-12 17:25N 26°06' W 080°07'0 0.0
2017-Jan-12 16:25N 26°06' W 080°07'0 0.0
2017-Jan-12 15:13N 26°06' W 080°07'0 0.0
2017-Jan-12 14:31N 26°06' W 080°07'0 0.0
2017-Jan-12 13:31N 26°06' W 080°07'0 0.0
2017-Jan-12 12:19N 26°06' W 080°07'0 0.0
2017-Jan-12 05:10N 26°06' W 080°07'0 0.0
2017-Jan-12 00:31N 26°06' W 080°07'0 0.0
2017-Jan-11 23:28N 26°06' W 080°07'0 0.0
2017-Jan-11 21:16N 26°06' W 080°07'0 0.0
2017-Jan-11 15:07N 26°06' W 080°07'0 0.0
2017-Jan-11 14:10N 26°06' W 080°07'1 1.0
2017-Jan-11 13:33N 26°06' W 080°07'6 5.8
2017-Jan-11 12:33N 26°09' W 080°02'8 7.5
2017-Jan-11 11:33N 26°17' W 080°01'10 9.7
2017-Jan-11 10:33N 26°27' W 079°59'1612.9
2017-Jan-11 09:19N 26°43' W 079°57'1013.7
2017-Jan-11 08:33N 26°53' W 079°55'1312.7
2017-Jan-11 07:33N 27°05' W 079°57'46815.1
2017-Jan-10 00:30N 34°14' W 076°20'  
Track history (hours):
 
Tides and Currents Weather Stations Pressure Air Temp Water Temp Dewpoint Dewpoint Depression Visibility Wind Speed Wind Dir Waves Ship Positions

Chemical Pioneer

Owner: US Shipping Corp, Edison, NJ. More information available from US FCC via Universal Licensing System and Coast Guard Vessel Documentation Center.

Last reported at 2017-Jan-19 22:27 UTC. Time now 2017-Jan-20 01:50 UTC.
Position N 30°13' W 093°17'.

Type: Tanker. MMSI: 366032000.

Date/timePositionNaut miles runAvg speedWind from/ knotsBaromVisibWave heightAir tempDewpointWater temp
2017-Jan-19 22:27N 30°13' W 093°17'3 3.0
2017-Jan-19 21:34N 30°11' W 093°18'6 5.6
2017-Jan-19 20:33N 30°06' W 093°19'9 8.5
2017-Jan-19 19:34N 29°57' W 093°20'1110.8
2017-Jan-19 18:34N 29°46' W 093°21'11 1.6
2017-Jan-19 11:33N 29°36' W 093°15'0 0.0
2017-Jan-18 03:21N 29°36' W 093°15'0 0.0
2017-Jan-18 02:33N 29°36' W 093°15'0 0.0
2017-Jan-17 11:21N 29°36' W 093°15'0 0.0
2017-Jan-17 10:33N 29°36' W 093°15'0 0.0
2017-Jan-17 09:33N 29°36' W 093°15'0 0.0
2017-Jan-16 19:30N 29°36' W 093°15'0 0.0
2017-Jan-16 09:27N 29°36' W 093°15'0 0.0
2017-Jan-16 02:03N 29°36' W 093°15'0 0.0
2017-Jan-15 23:33N 29°36' W 093°15'0 0.0
2017-Jan-15 22:33N 29°36' W 093°15'74814.6
2017-Jan-13 19:16N 25°13' W 080°06'1014.2
2017-Jan-13 18:34N 25°22' W 080°02'1514.5
2017-Jan-13 17:33N 25°37' W 080°01'1615.8
2017-Jan-13 16:33N 25°53' W 080°02'1413.5
2017-Jan-13 15:33N 26°06' W 080°06'1 0.6
2017-Jan-13 13:22N 26°06' W 080°07'0 0.0
2017-Jan-13 12:31N 26°06' W 080°07'0 0.0
2017-Jan-13 11:22N 26°06' W 080°07'0 0.0
2017-Jan-13 10:10N 26°06' W 080°07'0 0.0
2017-Jan-13 08:07N 26°06' W 080°07'0 0.0
2017-Jan-13 07:13N 26°06' W 080°07'0 0.0
2017-Jan-13 03:13N 26°06' W 080°07'0 0.0
2017-Jan-13 01:31N 26°06' W 080°07'0 0.0
2017-Jan-13 00:31N 26°06' W 080°07'0 0.0
2017-Jan-12 23:31N 26°06' W 080°07'0 0.0
2017-Jan-12 20:07N 26°06' W 080°07'0 0.0
2017-Jan-12 17:25N 26°06' W 080°07'0 0.0
2017-Jan-12 16:25N 26°06' W 080°07'0 0.0
2017-Jan-12 15:13N 26°06' W 080°07'0 0.0
2017-Jan-12 14:31N 26°06' W 080°07'0 0.0
2017-Jan-12 13:31N 26°06' W 080°07'0 0.0
2017-Jan-12 12:19N 26°06' W 080°07'0 0.0
2017-Jan-12 05:10N 26°06' W 080°07'0 0.0
2017-Jan-12 00:31N 26°06' W 080°07'0 0.0
2017-Jan-11 23:28N 26°06' W 080°07'0 0.0
2017-Jan-11 21:16N 26°06' W 080°07'0 0.0
2017-Jan-11 15:07N 26°06' W 080°07'0 0.0
2017-Jan-11 14:10N 26°06' W 080°07'1 1.0
2017-Jan-11 13:33N 26°06' W 080°07'6 5.8
2017-Jan-11 12:33N 26°09' W 080°02'8 7.5
2017-Jan-11 11:33N 26°17' W 080°01'10 9.7
2017-Jan-11 10:33N 26°27' W 079°59'1612.9
2017-Jan-11 09:19N 26°43' W 079°57'1013.7
2017-Jan-11 08:33N 26°53' W 079°55'1312.7
2017-Jan-11 07:33N 27°05' W 079°57'46815.1
2017-Jan-10 00:30N 34°14' W 076°20'  

Dump ship's entire track history